Terminal Aerodrome Forecast
Issued by NWS

Home | Current Version | Previous Version | Text Only | Print | Product List | Glossary Off
Versions: 1 2 3 4 5 6 7 8 9 10 11 12 13 14 15 16 17 18 19 20 21 22 23 24 25 26 27 28 29 30

000
FTUS43 KBIS 291410 AAA
TAFDIK
TAF AMD
KDIK 291410Z 2914/3012 16005KT P6SM BKN040
      TEMPO 2914/2916 OVC025
     FM291900 15008KT P6SM BKN050
     FM300200 13006KT P6SM BKN100
     FM300900 18010KT P6SM SCT020 BKN070=

USA.gov is the U.S. government's official web portal to all federal, state and local government web resources and services.